createdAt,value
2022-08-20T00:00:11.467Z,96275
2022-08-20T00:01:11.432Z,96273
2022-08-20T00:02:11.589Z,96271
2022-08-20T00:05:11.488Z,96272
2022-08-20T00:06:11.478Z,96272
2022-08-20T00:07:11.455Z,96266
2022-08-20T00:08:11.473Z,96267
2022-08-20T00:09:11.487Z,96269
2022-08-20T00:10:11.484Z,96268
2022-08-20T00:11:11.484Z,96268
2022-08-20T00:12:11.486Z,96266
2022-08-20T00:14:11.479Z,96266
2022-08-20T00:16:11.505Z,96267
2022-08-20T00:17:11.492Z,96261
2022-08-20T00:18:12.692Z,96261
2022-08-20T00:19:11.505Z,96263
2022-08-20T00:20:11.502Z,96263
2022-08-20T00:23:11.515Z,96262
2022-08-20T00:24:11.525Z,96262
2022-08-20T00:25:11.518Z,96267
2022-08-20T00:26:11.530Z,96267
2022-08-20T00:27:11.505Z,96268
2022-08-20T00:28:11.557Z,96267
2022-08-20T00:29:11.514Z,96267
2022-08-20T00:30:11.527Z,96269
2022-08-20T00:31:11.539Z,96269
2022-08-20T00:32:11.521Z,96269
2022-08-20T00:33:11.544Z,96264
2022-08-20T00:34:11.538Z,96265
2022-08-20T00:35:12.902Z,96265
2022-08-20T00:36:11.540Z,96266
2022-08-20T00:38:11.556Z,96263
2022-08-20T00:39:11.555Z,96263
2022-08-20T00:40:22.382Z,96265
2022-08-20T00:41:11.573Z,96266
2022-08-20T00:42:11.561Z,96264
2022-08-20T00:43:11.570Z,96264
2022-08-20T00:44:11.561Z,96266
2022-08-20T00:45:11.556Z,96270
2022-08-20T00:46:11.571Z,96270
2022-08-20T00:47:11.581Z,96272
2022-08-20T00:48:11.567Z,96272
2022-08-20T00:49:11.565Z,96273
2022-08-20T00:50:11.578Z,96274
2022-08-20T00:51:11.559Z,96275
2022-08-20T00:52:11.576Z,96277
2022-08-20T00:53:11.586Z,96281
2022-08-20T00:54:11.607Z,96275
2022-08-20T00:57:11.614Z,96280
2022-08-20T00:58:11.604Z,96279
2022-08-20T00:59:11.767Z,96278
2022-08-20T01:00:11.596Z,96280
2022-08-20T01:01:11.605Z,96283
2022-08-20T01:02:11.678Z,96283
2022-08-20T01:05:11.603Z,96279
2022-08-20T01:06:11.614Z,96282
2022-08-20T01:07:11.655Z,96280
2022-08-20T01:08:11.616Z,96280
2022-08-20T01:10:11.639Z,96280
2022-08-20T01:11:11.624Z,96280
2022-08-20T01:12:11.622Z,96285
2022-08-20T01:13:11.640Z,96287
2022-08-20T01:14:11.640Z,96284
2022-08-20T01:15:11.635Z,96284
2022-08-20T01:17:12.797Z,96284
2022-08-20T01:18:11.659Z,96280
2022-08-20T01:21:11.658Z,96282
2022-08-20T01:22:11.654Z,96280
2022-08-20T01:23:11.643Z,96281
2022-08-20T01:24:11.653Z,96281
2022-08-20T01:25:11.668Z,96281
2022-08-20T01:29:11.701Z,96287
2022-08-20T01:30:11.683Z,96286
2022-08-20T01:31:11.693Z,96283
2022-08-20T01:32:11.695Z,96283
2022-08-20T01:36:11.721Z,96289
2022-08-20T01:37:11.705Z,96289
2022-08-20T01:38:11.707Z,96290
2022-08-20T01:39:11.695Z,96294
2022-08-20T01:40:11.729Z,96290
2022-08-20T01:41:11.713Z,96289
2022-08-20T01:44:16.010Z,96290
2022-08-20T01:45:11.726Z,96290
2022-08-20T01:47:11.740Z,96292
2022-08-20T01:49:12.426Z,96295
2022-08-20T01:50:11.731Z,96294
2022-08-20T01:52:11.754Z,96297
2022-08-20T01:53:11.729Z,96297
2022-08-20T01:55:11.762Z,96301
2022-08-20T01:56:11.753Z,96301
2022-08-20T01:57:11.754Z,96302
2022-08-20T01:58:11.748Z,96305
2022-08-20T01:59:11.745Z,96304
2022-08-20T02:00:20.147Z,96308
2022-08-20T02:03:11.767Z,96305
2022-08-20T02:05:11.767Z,96300
2022-08-20T02:06:11.760Z,96298
2022-08-20T02:07:11.762Z,96301
2022-08-20T02:09:15.954Z,96305
2022-08-20T02:10:11.797Z,96307
2022-08-20T02:11:11.785Z,96307
2022-08-20T02:12:11.770Z,96307
2022-08-20T02:13:11.777Z,96308
2022-08-20T02:14:11.792Z,96304
2022-08-20T02:15:11.808Z,96306
2022-08-20T02:16:11.806Z,96304
2022-08-20T02:17:11.806Z,96304
2022-08-20T02:18:11.807Z,96305
2022-08-20T02:19:11.802Z,96307
2022-08-20T02:21:11.806Z,96303
2022-08-20T02:22:11.811Z,96307
2022-08-20T02:23:11.801Z,96302
2022-08-20T02:24:11.816Z,96299
2022-08-20T02:25:11.806Z,96302
2022-08-20T02:26:11.821Z,96305
2022-08-20T02:27:11.842Z,96298
2022-08-20T02:28:11.824Z,96300
2022-08-20T02:29:11.809Z,96294
2022-08-20T02:31:11.872Z,96295
2022-08-20T02:32:32.270Z,96295
2022-08-20T02:33:11.830Z,96292
2022-08-20T02:34:21.942Z,96292
2022-08-20T02:36:11.842Z,96286
2022-08-20T02:37:11.837Z,96285
2022-08-20T02:38:11.847Z,96282
2022-08-20T02:39:11.850Z,96284
2022-08-20T02:40:11.921Z,96284
2022-08-20T02:41:11.891Z,96284
2022-08-20T02:42:11.863Z,96286
2022-08-20T02:43:11.867Z,96284
2022-08-20T02:44:11.862Z,96287
2022-08-20T02:46:11.881Z,96287
2022-08-20T02:47:11.875Z,96286
2022-08-20T02:49:11.876Z,96279
2022-08-20T02:50:11.873Z,96275
2022-08-20T02:53:11.984Z,96272
2022-08-20T02:54:11.893Z,96264
2022-08-20T02:55:11.888Z,96264
2022-08-20T02:56:11.901Z,96263
2022-08-20T02:57:11.897Z,96261
2022-08-20T02:59:13.698Z,96260
2022-08-20T03:00:11.925Z,96260
2022-08-20T03:02:11.911Z,96260
2022-08-20T03:03:11.909Z,96260
2022-08-20T03:06:11.924Z,96263
2022-08-20T03:07:11.927Z,96261
2022-08-20T03:08:11.945Z,96262
2022-08-20T03:09:11.946Z,96262
2022-08-20T03:11:11.944Z,96263
2022-08-20T03:12:11.959Z,96259
2022-08-20T03:16:11.952Z,96265
2022-08-20T03:17:11.963Z,96261
2022-08-20T03:18:11.950Z,96259
2022-08-20T03:24:11.983Z,96258
2022-08-20T03:29:11.982Z,96257
2022-08-20T03:30:12.000Z,96258
2022-08-20T03:31:12.594Z,96257
2022-08-20T03:32:12.008Z,96257
2022-08-20T03:33:11.985Z,96258
2022-08-20T03:34:12.024Z,96260
2022-08-20T03:35:11.990Z,96263
2022-08-20T03:36:12.010Z,96259
2022-08-20T03:37:12.010Z,96259
2022-08-20T03:38:12.017Z,96256
2022-08-20T03:39:12.014Z,96256
2022-08-20T03:40:12.090Z,96255
2022-08-20T03:41:12.006Z,96252
2022-08-20T03:42:12.018Z,96257
2022-08-20T03:43:12.026Z,96256
2022-08-20T03:44:12.030Z,96254
2022-08-20T03:45:12.012Z,96255
2022-08-20T03:46:22.283Z,96252
2022-08-20T03:47:12.008Z,96253
2022-08-20T03:48:12.023Z,96256
2022-08-20T03:49:12.044Z,96258
2022-08-20T03:50:14.816Z,96261
2022-08-20T03:51:12.038Z,96261
2022-08-20T03:52:12.063Z,96262
2022-08-20T03:53:13.126Z,96262
2022-08-20T03:54:12.067Z,96260
2022-08-20T03:55:12.031Z,96262
2022-08-20T03:56:12.058Z,96260
2022-08-20T03:58:12.075Z,96261
2022-08-20T03:59:12.073Z,96263
2022-08-20T04:00:12.069Z,96261
2022-08-20T04:01:37.085Z,96261
2022-08-20T04:02:12.097Z,96264
2022-08-20T04:03:12.063Z,96266
2022-08-20T04:05:12.084Z,96266
2022-08-20T04:06:12.090Z,96266
2022-08-20T04:07:12.122Z,96266
2022-08-20T04:08:12.120Z,96267
2022-08-20T04:09:12.476Z,96265
2022-08-20T04:11:12.094Z,96265
2022-08-20T04:12:12.100Z,96270
2022-08-20T04:13:12.100Z,96270
2022-08-20T04:14:16.631Z,96271
2022-08-20T04:15:12.101Z,96273
2022-08-20T04:17:12.099Z,96273
2022-08-20T04:18:12.117Z,96270
2022-08-20T04:19:12.113Z,96270
2022-08-20T04:21:12.116Z,96275
2022-08-20T04:22:12.132Z,96272
2022-08-20T04:25:12.129Z,96278
2022-08-20T04:28:12.490Z,96277
2022-08-20T04:29:12.144Z,96276
2022-08-20T04:35:12.165Z,96289
2022-08-20T04:36:12.155Z,96289
2022-08-20T04:37:17.258Z,96285
2022-08-20T04:39:12.148Z,96290
2022-08-20T04:42:12.172Z,96292
2022-08-20T04:45:12.175Z,96294
2022-08-20T04:46:12.190Z,96294
2022-08-20T04:48:15.150Z,96291
2022-08-20T04:49:12.206Z,96288
2022-08-20T04:50:12.172Z,96288
2022-08-20T04:51:12.182Z,96293
2022-08-20T04:52:12.196Z,96292
2022-08-20T04:53:12.202Z,96292
2022-08-20T04:54:12.188Z,96289
2022-08-20T04:55:12.204Z,96289
2022-08-20T04:56:12.214Z,96289
2022-08-20T04:57:12.202Z,96294
2022-08-20T04:58:12.204Z,96293
2022-08-20T04:59:12.221Z,96293
2022-08-20T05:00:12.205Z,96296
2022-08-20T05:01:12.281Z,96295
2022-08-20T05:02:12.224Z,96293
2022-08-20T05:03:12.217Z,96296
2022-08-20T05:04:12.222Z,96295
2022-08-20T05:05:12.220Z,96293
2022-08-20T05:06:12.270Z,96295
2022-08-20T05:07:12.247Z,96292
2022-08-20T05:08:18.775Z,96291
2022-08-20T05:09:12.244Z,96293
2022-08-20T05:10:12.248Z,96292
2022-08-20T05:11:33.773Z,96292
2022-08-20T05:13:12.259Z,96290
2022-08-20T05:14:12.233Z,96294
2022-08-20T05:15:12.244Z,96295
2022-08-20T05:16:12.258Z,96296
2022-08-20T05:17:12.262Z,96296
2022-08-20T05:18:12.277Z,96299
2022-08-20T05:19:12.266Z,96299
2022-08-20T05:20:12.269Z,96298
2022-08-20T05:21:12.287Z,96303
2022-08-20T05:22:12.267Z,96305
2022-08-20T05:23:12.277Z,96299
2022-08-20T05:24:12.271Z,96301
2022-08-20T05:25:12.255Z,96303
2022-08-20T05:26:12.309Z,96304
2022-08-20T05:27:19.861Z,96304
2022-08-20T05:28:12.275Z,96308
2022-08-20T05:29:12.285Z,96304
2022-08-20T05:30:13.555Z,96305
2022-08-20T05:31:12.327Z,96308
2022-08-20T05:32:12.291Z,96308
2022-08-20T05:33:12.284Z,96302
2022-08-20T05:34:12.651Z,96307
2022-08-20T05:35:12.300Z,96307
2022-08-20T05:36:12.316Z,96307
2022-08-20T05:37:12.294Z,96310
2022-08-20T05:38:12.308Z,96308
2022-08-20T05:39:12.312Z,96310
2022-08-20T05:40:12.338Z,96314
2022-08-20T05:41:12.338Z,96312
2022-08-20T05:42:12.325Z,96309
2022-08-20T05:43:12.322Z,96312
2022-08-20T05:44:12.327Z,96313
2022-08-20T05:45:12.320Z,96313
2022-08-20T05:46:12.352Z,96312
2022-08-20T05:47:12.338Z,96316
2022-08-20T05:48:12.334Z,96316
2022-08-20T05:49:12.347Z,96318
2022-08-20T05:50:12.329Z,96321
2022-08-20T05:51:15.256Z,96321
2022-08-20T05:55:12.341Z,96322
2022-08-20T05:56:12.368Z,96327
2022-08-20T05:57:12.368Z,96328
2022-08-20T05:58:12.372Z,96328
2022-08-20T05:59:12.360Z,96326
2022-08-20T06:00:12.389Z,96330
2022-08-20T06:01:12.462Z,96330
2022-08-20T06:02:12.370Z,96326
2022-08-20T06:03:12.375Z,96324
2022-08-20T06:04:12.381Z,96325
2022-08-20T06:06:18.006Z,96326
2022-08-20T06:07:12.381Z,96326
2022-08-20T06:08:12.370Z,96325
2022-08-20T06:09:12.398Z,96325
2022-08-20T06:10:12.401Z,96323
2022-08-20T06:11:12.428Z,96322
2022-08-20T06:12:12.403Z,96323
2022-08-20T06:13:13.812Z,96322
2022-08-20T06:14:12.416Z,96321
2022-08-20T06:15:12.403Z,96324
2022-08-20T06:16:12.442Z,96322
2022-08-20T06:17:13.367Z,96322
2022-08-20T06:18:27.361Z,96320
2022-08-20T06:19:12.418Z,96319
2022-08-20T06:20:12.419Z,96316
2022-08-20T06:21:12.458Z,96317
2022-08-20T06:22:19.713Z,96317
2022-08-20T06:23:12.412Z,96315
2022-08-20T06:25:12.418Z,96317
2022-08-20T06:26:12.480Z,96316
2022-08-20T06:27:12.447Z,96314
2022-08-20T06:28:12.453Z,96315
2022-08-20T06:29:12.439Z,96315
2022-08-20T06:30:12.442Z,96319
2022-08-20T06:31:12.471Z,96315
2022-08-20T06:32:12.450Z,96313
2022-08-20T06:33:12.458Z,96313
2022-08-20T06:34:12.459Z,96309
2022-08-20T06:35:14.975Z,96305
2022-08-20T06:36:13.285Z,96309
2022-08-20T06:37:12.453Z,96309
2022-08-20T06:38:12.461Z,96306
2022-08-20T06:39:12.446Z,96303
2022-08-20T06:40:12.506Z,96309
2022-08-20T06:41:12.473Z,96311
2022-08-20T06:42:12.505Z,96311
2022-08-20T06:43:12.471Z,96310
2022-08-20T06:44:12.482Z,96312
2022-08-20T06:45:12.457Z,96312
2022-08-20T06:46:12.472Z,96315
2022-08-20T06:47:12.499Z,96318
2022-08-20T06:48:15.092Z,96317
2022-08-20T06:49:12.500Z,96317
2022-08-20T06:50:12.480Z,96320
2022-08-20T06:51:12.493Z,96323
2022-08-20T06:52:12.528Z,96324
2022-08-20T06:53:12.488Z,96324
2022-08-20T06:54:12.484Z,96324
2022-08-20T06:55:12.503Z,96324
2022-08-20T06:57:12.549Z,96330
2022-08-20T06:58:26.787Z,96330
2022-08-20T06:59:12.521Z,96330
2022-08-20T07:00:12.524Z,96325
2022-08-20T07:01:12.602Z,96326
2022-08-20T07:02:12.551Z,96328
2022-08-20T07:03:12.518Z,96330
2022-08-20T07:04:12.521Z,96330
2022-08-20T07:05:12.544Z,96327
2022-08-20T07:06:12.546Z,96329
2022-08-20T07:07:12.574Z,96329
2022-08-20T07:08:12.530Z,96330
2022-08-20T07:09:12.549Z,96325
2022-08-20T07:10:12.555Z,96325
2022-08-20T07:11:12.567Z,96326
2022-08-20T07:12:12.582Z,96326
2022-08-20T07:14:12.576Z,96323
2022-08-20T07:15:12.562Z,96329
2022-08-20T07:17:12.606Z,96324
2022-08-20T07:18:12.605Z,96326
2022-08-20T07:19:12.581Z,96329
2022-08-20T07:20:12.563Z,96329
2022-08-20T07:21:12.567Z,96333
2022-08-20T07:22:12.594Z,96333
2022-08-20T07:23:12.573Z,96332
2022-08-20T07:24:12.609Z,96328
2022-08-20T07:25:12.590Z,96328
2022-08-20T07:26:12.584Z,96331
2022-08-20T07:28:12.607Z,96324
2022-08-20T07:29:12.596Z,96330
2022-08-20T07:30:15.176Z,96326
2022-08-20T07:31:14.412Z,96326
2022-08-20T07:32:12.606Z,96325
2022-08-20T07:33:12.638Z,96328
2022-08-20T07:34:12.604Z,96328
2022-08-20T07:35:12.614Z,96325
2022-08-20T07:36:12.629Z,96330
2022-08-20T07:37:12.626Z,96331
2022-08-20T07:38:12.647Z,96331
2022-08-20T07:39:12.640Z,96337
2022-08-20T07:40:12.750Z,96337
2022-08-20T07:41:12.633Z,96333
2022-08-20T07:42:12.623Z,96333
2022-08-20T07:43:12.640Z,96338
2022-08-20T07:44:12.622Z,96338
2022-08-20T07:45:12.637Z,96338
2022-08-20T07:47:12.622Z,96338
2022-08-20T07:48:12.654Z,96334
2022-08-20T07:49:12.636Z,96341
2022-08-20T07:50:12.647Z,96342
2022-08-20T07:51:12.648Z,96342
2022-08-20T07:52:12.659Z,96341
2022-08-20T07:53:12.696Z,96341
2022-08-20T07:54:12.662Z,96342
2022-08-20T07:55:12.665Z,96342
2022-08-20T07:56:12.819Z,96342
2022-08-20T07:57:12.665Z,96341
2022-08-20T07:58:12.703Z,96341
2022-08-20T07:59:12.667Z,96345
2022-08-20T08:00:12.672Z,96348
2022-08-20T08:01:12.770Z,96346
2022-08-20T08:02:12.680Z,96349
2022-08-20T08:03:12.710Z,96349
2022-08-20T08:04:12.671Z,96351
2022-08-20T08:05:12.690Z,96348
2022-08-20T08:07:12.697Z,96349
2022-08-20T08:08:12.720Z,96349
2022-08-20T08:09:12.711Z,96349
2022-08-20T08:10:12.689Z,96349
2022-08-20T08:11:12.719Z,96348
2022-08-20T08:12:12.699Z,96347
2022-08-20T08:13:12.745Z,96352
2022-08-20T08:14:12.707Z,96352
2022-08-20T08:15:12.728Z,96348
2022-08-20T08:17:12.729Z,96349
2022-08-20T08:18:12.745Z,96349
2022-08-20T08:19:12.718Z,96351
2022-08-20T08:20:12.704Z,96352
2022-08-20T08:21:12.745Z,96352
2022-08-20T08:22:12.730Z,96354
2022-08-20T08:23:24.719Z,96352
2022-08-20T08:25:12.737Z,96350
2022-08-20T08:26:18.677Z,96351
2022-08-20T08:27:12.750Z,96350
2022-08-20T08:28:12.781Z,96350
2022-08-20T08:29:12.767Z,96352
2022-08-20T08:30:12.765Z,96350
2022-08-20T08:31:12.769Z,96346
2022-08-20T08:32:12.756Z,96346
2022-08-20T08:33:12.805Z,96353
2022-08-20T08:36:12.757Z,96352
2022-08-20T08:37:12.762Z,96349
2022-08-20T08:38:14.298Z,96350
2022-08-20T08:39:12.790Z,96350
2022-08-20T08:40:12.874Z,96346
2022-08-20T08:41:12.801Z,96348
2022-08-20T08:42:14.215Z,96350
2022-08-20T08:43:12.817Z,96346
2022-08-20T08:44:12.839Z,96346
2022-08-20T08:45:12.780Z,96346
2022-08-20T08:46:12.812Z,96340
2022-08-20T08:47:12.790Z,96347
2022-08-20T08:48:16.552Z,96347
2022-08-20T08:49:12.787Z,96348
2022-08-20T08:50:12.797Z,96351
2022-08-20T08:51:12.805Z,96351
2022-08-20T08:52:12.811Z,96354
2022-08-20T08:53:12.837Z,96358
2022-08-20T08:54:12.814Z,96356
2022-08-20T08:55:12.816Z,96358
2022-08-20T08:56:12.832Z,96357
2022-08-20T08:57:12.819Z,96356
2022-08-20T08:58:16.845Z,96362
2022-08-20T08:59:12.818Z,96360
2022-08-20T09:01:13.716Z,96355
2022-08-20T09:02:12.898Z,96353
2022-08-20T09:03:12.864Z,96353
2022-08-20T09:04:12.862Z,96353
2022-08-20T09:05:12.863Z,96353
2022-08-20T09:06:12.862Z,96351
2022-08-20T09:07:12.858Z,96351
2022-08-20T09:08:16.731Z,96349
2022-08-20T09:09:12.857Z,96349
2022-08-20T09:10:12.869Z,96351
2022-08-20T09:12:12.862Z,96351
2022-08-20T09:13:12.894Z,96356
2022-08-20T09:14:12.867Z,96356
2022-08-20T09:15:12.863Z,96354
2022-08-20T09:17:12.876Z,96355
2022-08-20T09:18:12.886Z,96358
2022-08-20T09:19:12.885Z,96353
2022-08-20T09:20:12.874Z,96356
2022-08-20T09:21:12.887Z,96356
2022-08-20T09:22:12.882Z,96356
2022-08-20T09:23:12.908Z,96355
2022-08-20T09:24:12.901Z,96357
2022-08-20T09:25:12.905Z,96367
2022-08-20T09:26:12.899Z,96367
2022-08-20T09:27:12.914Z,96361
2022-08-20T09:28:12.944Z,96363
2022-08-20T09:29:12.893Z,96363
2022-08-20T09:30:12.902Z,96363
2022-08-20T09:31:12.896Z,96365
2022-08-20T09:32:13.331Z,96365
2022-08-20T09:33:12.964Z,96365
2022-08-20T09:35:12.929Z,96363
2022-08-20T09:36:29.084Z,96367
2022-08-20T09:37:12.937Z,96368
2022-08-20T09:38:12.998Z,96367
2022-08-20T09:39:12.926Z,96372
2022-08-20T09:40:13.043Z,96365
2022-08-20T09:41:12.923Z,96365
2022-08-20T09:42:12.952Z,96364
2022-08-20T09:43:12.963Z,96364
2022-08-20T09:44:12.947Z,96366
2022-08-20T09:46:12.945Z,96370
2022-08-20T09:47:12.959Z,96370
2022-08-20T09:48:12.977Z,96368
2022-08-20T09:49:12.944Z,96369
2022-08-20T09:50:12.980Z,96367
2022-08-20T09:51:12.948Z,96367
2022-08-20T09:52:12.972Z,96362
2022-08-20T09:53:12.998Z,96368
2022-08-20T09:54:12.963Z,96369
2022-08-20T09:55:12.990Z,96366
2022-08-20T09:56:12.972Z,96366
2022-08-20T09:57:12.974Z,96363
2022-08-20T09:58:12.992Z,96367
2022-08-20T09:59:12.979Z,96362
2022-08-20T10:00:12.994Z,96367
2022-08-20T10:01:14.014Z,96363
2022-08-20T10:02:12.987Z,96366
2022-08-20T10:04:13.037Z,96369
2022-08-20T10:05:13.008Z,96368
2022-08-20T10:06:13.009Z,96368
2022-08-20T10:07:12.992Z,96368
2022-08-20T10:10:13.026Z,96370
2022-08-20T10:11:13.016Z,96368
2022-08-20T10:12:13.026Z,96369
2022-08-20T10:13:13.385Z,96369
2022-08-20T10:14:13.035Z,96367
2022-08-20T10:15:13.058Z,96366
2022-08-20T10:16:13.017Z,96366
2022-08-20T10:17:13.029Z,96369
2022-08-20T10:18:13.046Z,96369
2022-08-20T10:19:13.038Z,96370
2022-08-20T10:20:13.059Z,96371
2022-08-20T10:22:13.040Z,96367
2022-08-20T10:24:13.037Z,96369
2022-08-20T10:25:13.059Z,96369
2022-08-20T10:26:13.043Z,96366
2022-08-20T10:28:13.044Z,96363
2022-08-20T10:29:13.062Z,96364
2022-08-20T10:30:13.115Z,96363
2022-08-20T10:33:13.069Z,96362
2022-08-20T10:34:13.056Z,96360
2022-08-20T10:36:13.123Z,96364
2022-08-20T10:37:13.102Z,96367
2022-08-20T10:38:13.075Z,96367
2022-08-20T10:39:13.090Z,96367
2022-08-20T10:40:13.224Z,96370
2022-08-20T10:41:13.128Z,96367
2022-08-20T10:42:13.103Z,96366
2022-08-20T10:43:13.096Z,96366
2022-08-20T10:44:13.100Z,96366
2022-08-20T10:45:13.107Z,96363
2022-08-20T10:46:13.119Z,96363
2022-08-20T10:47:13.098Z,96365
2022-08-20T10:48:13.939Z,96363
2022-08-20T10:49:13.108Z,96363
2022-08-20T10:50:13.262Z,96365
2022-08-20T10:51:13.145Z,96363
2022-08-20T10:52:13.120Z,96362
2022-08-20T10:53:13.138Z,96363
2022-08-20T10:54:13.133Z,96358
2022-08-20T10:55:13.134Z,96359
2022-08-20T10:56:15.640Z,96359
2022-08-20T10:57:13.151Z,96361
2022-08-20T10:58:13.153Z,96359
2022-08-20T10:59:13.148Z,96358
2022-08-20T11:00:13.195Z,96358
2022-08-20T11:01:13.190Z,96355
2022-08-20T11:03:13.165Z,96358
2022-08-20T11:04:13.154Z,96360
2022-08-20T11:05:13.142Z,96357
2022-08-20T11:06:13.180Z,96360
2022-08-20T11:07:13.144Z,96357
2022-08-20T11:08:13.159Z,96358
2022-08-20T11:09:13.180Z,96353
2022-08-20T11:10:13.948Z,96353
2022-08-20T11:11:13.209Z,96350
2022-08-20T11:13:13.179Z,96353
2022-08-20T11:14:13.164Z,96350
2022-08-20T11:15:13.180Z,96348
2022-08-20T11:16:13.206Z,96347
2022-08-20T11:17:13.161Z,96346
2022-08-20T11:18:13.180Z,96344
2022-08-20T11:19:13.187Z,96348
2022-08-20T11:20:13.193Z,96343
2022-08-20T11:21:13.215Z,96340
2022-08-20T11:22:13.195Z,96344
2022-08-20T11:23:13.200Z,96344
2022-08-20T11:24:13.186Z,96339
2022-08-20T11:25:13.200Z,96337
2022-08-20T11:26:13.235Z,96340
2022-08-20T11:27:13.216Z,96340
2022-08-20T11:29:13.202Z,96334
2022-08-20T11:30:13.220Z,96335
2022-08-20T11:31:13.245Z,96336
2022-08-20T11:32:13.234Z,96334
2022-08-20T11:33:13.207Z,96334
2022-08-20T11:34:13.232Z,96333
2022-08-20T11:36:13.271Z,96334
2022-08-20T11:37:13.231Z,96334
2022-08-20T11:38:13.227Z,96332
2022-08-20T11:39:13.258Z,96336
2022-08-20T11:40:13.321Z,96336
2022-08-20T11:41:13.253Z,96334
2022-08-20T11:42:13.267Z,96335
2022-08-20T11:43:15.159Z,96333
2022-08-20T11:44:20.990Z,96333
2022-08-20T11:45:13.269Z,96333
2022-08-20T11:46:13.312Z,96333
2022-08-20T11:47:13.253Z,96331
2022-08-20T11:48:13.262Z,96333
2022-08-20T11:49:13.275Z,96329
2022-08-20T11:50:13.269Z,96329
2022-08-20T11:51:13.285Z,96329
2022-08-20T11:52:13.271Z,96327
2022-08-20T11:53:13.279Z,96325
2022-08-20T11:54:13.273Z,96329
2022-08-20T11:55:13.288Z,96328
2022-08-20T11:56:13.488Z,96324
2022-08-20T11:57:13.269Z,96325
2022-08-20T11:58:13.288Z,96325
2022-08-20T11:59:13.298Z,96328
2022-08-20T12:00:13.282Z,96328
2022-08-20T12:01:13.324Z,96325
2022-08-20T12:02:13.349Z,96325
2022-08-20T12:03:13.447Z,96325
2022-08-20T12:04:13.312Z,96323
2022-08-20T12:05:13.311Z,96323
2022-08-20T12:06:13.342Z,96317
2022-08-20T12:07:13.307Z,96317
2022-08-20T12:08:27.290Z,96322
2022-08-20T12:09:13.322Z,96323
2022-08-20T12:10:13.324Z,96323
2022-08-20T12:11:13.352Z,96318
2022-08-20T12:12:13.333Z,96320
2022-08-20T12:13:13.337Z,96317
2022-08-20T12:14:13.330Z,96315
2022-08-20T12:15:13.315Z,96314
2022-08-20T12:16:13.356Z,96317
2022-08-20T12:17:13.330Z,96311
2022-08-20T12:18:13.334Z,96312
2022-08-20T12:19:13.334Z,96309
2022-08-20T12:20:13.335Z,96312
2022-08-20T12:21:13.366Z,96312
2022-08-20T12:22:24.456Z,96307
2022-08-20T12:23:13.336Z,96312
2022-08-20T12:24:13.355Z,96307
2022-08-20T12:25:13.461Z,96309
2022-08-20T12:26:14.025Z,96309
2022-08-20T12:27:13.395Z,96305
2022-08-20T12:28:13.368Z,96305
2022-08-20T12:29:13.382Z,96302
2022-08-20T12:31:13.390Z,96304
2022-08-20T12:32:13.381Z,96307
2022-08-20T12:33:13.392Z,96306
2022-08-20T12:34:13.374Z,96312
2022-08-20T12:35:13.397Z,96299
2022-08-20T12:36:13.421Z,96299
2022-08-20T12:37:15.914Z,96303
2022-08-20T12:38:13.380Z,96299
2022-08-20T12:39:13.406Z,96301
2022-08-20T12:40:13.538Z,96300
2022-08-20T12:41:13.424Z,96298
2022-08-20T12:42:13.400Z,96297
2022-08-20T12:43:13.388Z,96302
2022-08-20T12:44:13.550Z,96300
2022-08-20T12:45:13.400Z,96302
2022-08-20T12:46:13.428Z,96297
2022-08-20T12:47:13.436Z,96297
2022-08-20T12:48:13.435Z,96299
2022-08-20T12:49:13.427Z,96297
2022-08-20T12:50:13.453Z,96295
2022-08-20T12:51:13.435Z,96290
2022-08-20T12:52:13.442Z,96293
2022-08-20T12:53:13.426Z,96293
2022-08-20T12:54:13.444Z,96293
2022-08-20T12:55:13.449Z,96298
2022-08-20T12:56:13.461Z,96298
2022-08-20T12:57:13.446Z,96298
2022-08-20T12:58:13.437Z,96301
2022-08-20T12:59:13.446Z,96301
2022-08-20T13:01:13.514Z,96302
2022-08-20T13:02:14.354Z,96302
2022-08-20T13:03:13.447Z,96305
2022-08-20T13:04:13.449Z,96305
2022-08-20T13:05:13.457Z,96303
2022-08-20T13:06:13.501Z,96299
2022-08-20T13:07:13.453Z,96300
2022-08-20T13:08:13.472Z,96303
2022-08-20T13:09:13.469Z,96302
2022-08-20T13:10:13.475Z,96305
2022-08-20T13:11:13.515Z,96299
2022-08-20T13:12:13.477Z,96295
2022-08-20T13:13:13.478Z,96295
2022-08-20T13:14:13.488Z,96299
2022-08-20T13:15:13.501Z,96302
2022-08-20T13:16:13.514Z,96302
2022-08-20T13:17:13.526Z,96301
2022-08-20T13:18:13.498Z,96299
2022-08-20T13:19:13.497Z,96298
2022-08-20T13:20:13.510Z,96302
2022-08-20T13:21:13.524Z,96302
2022-08-20T13:22:13.504Z,96299
2022-08-20T13:23:13.509Z,96301
2022-08-20T13:24:13.497Z,96301
2022-08-20T13:25:13.510Z,96297
2022-08-20T13:26:13.537Z,96299
2022-08-20T13:27:13.525Z,96293
2022-08-20T13:28:13.525Z,96292
2022-08-20T13:29:13.527Z,96293
2022-08-20T13:30:13.527Z,96292
2022-08-20T13:31:13.554Z,96291
2022-08-20T13:32:13.542Z,96290
2022-08-20T13:33:13.548Z,96290
2022-08-20T13:34:13.531Z,96289
2022-08-20T13:35:13.524Z,96293
2022-08-20T13:36:13.562Z,96295
2022-08-20T13:37:13.529Z,96295
2022-08-20T13:38:13.557Z,96288
2022-08-20T13:39:13.559Z,96288
2022-08-20T13:41:13.572Z,96284
2022-08-20T13:42:14.760Z,96285
2022-08-20T13:43:13.585Z,96285
2022-08-20T13:44:13.569Z,96285
2022-08-20T13:45:13.580Z,96289
2022-08-20T13:46:13.574Z,96289
2022-08-20T13:47:13.570Z,96292
2022-08-20T13:48:14.546Z,96291
2022-08-20T13:49:13.584Z,96287
2022-08-20T13:50:13.577Z,96281
2022-08-20T13:51:13.585Z,96286
2022-08-20T13:52:13.579Z,96290
2022-08-20T13:53:13.588Z,96290
2022-08-20T13:54:13.589Z,96279
2022-08-20T13:55:13.596Z,96280
2022-08-20T13:56:13.602Z,96278
2022-08-20T13:57:13.583Z,96282
2022-08-20T13:58:13.598Z,96276
2022-08-20T13:59:13.611Z,96282
2022-08-20T14:00:13.613Z,96291
2022-08-20T14:02:13.667Z,96285
2022-08-20T14:03:13.752Z,96285
2022-08-20T14:04:13.628Z,96292
2022-08-20T14:05:14.297Z,96285
2022-08-20T14:06:13.618Z,96286
2022-08-20T14:07:13.620Z,96286
2022-08-20T14:08:13.637Z,96285
2022-08-20T14:09:13.631Z,96287
2022-08-20T14:10:13.625Z,96285
2022-08-20T14:11:15.522Z,96284
2022-08-20T14:12:13.658Z,96287
2022-08-20T14:13:15.566Z,96281
2022-08-20T14:14:13.629Z,96281
2022-08-20T14:15:13.650Z,96281
2022-08-20T14:16:25.236Z,96284
2022-08-20T14:17:13.699Z,96283
2022-08-20T14:18:13.655Z,96278
2022-08-20T14:19:13.660Z,96279
2022-08-20T14:20:13.691Z,96278
2022-08-20T14:21:13.653Z,96276
2022-08-20T14:22:13.704Z,96281
2022-08-20T14:23:13.678Z,96282
2022-08-20T14:24:13.702Z,96277
2022-08-20T14:25:13.710Z,96277
2022-08-20T14:26:13.704Z,96278
2022-08-20T14:27:13.710Z,96278
2022-08-20T14:28:13.707Z,96281
2022-08-20T14:29:13.700Z,96281
2022-08-20T14:31:13.718Z,96284
2022-08-20T14:32:13.763Z,96284
2022-08-20T14:33:13.723Z,96290
2022-08-20T14:34:13.690Z,96290
2022-08-20T14:35:13.710Z,96288
2022-08-20T14:36:13.708Z,96287
2022-08-20T14:37:13.709Z,96289
2022-08-20T14:38:13.725Z,96286
2022-08-20T14:39:17.285Z,96283
2022-08-20T14:40:13.815Z,96280
2022-08-20T14:41:13.737Z,96282
2022-08-20T14:42:13.732Z,96285
2022-08-20T14:43:13.727Z,96286
2022-08-20T14:44:13.721Z,96288
2022-08-20T14:45:13.734Z,96288
2022-08-20T14:46:13.743Z,96290